createdAt,value
2019-04-27T00:00:35.381Z,4.73
2019-04-27T00:03:06.246Z,4.27
2019-04-27T00:05:36.451Z,4.53
2019-04-27T00:08:15.609Z,4.37
2019-04-27T00:10:51.426Z,5.27
2019-04-27T00:13:20.074Z,4.77
2019-04-27T00:15:53.818Z,4.43
2019-04-27T00:18:40.375Z,4.00
2019-04-27T00:21:10.690Z,4.47
2019-04-27T00:23:40.766Z,4.23
2019-04-27T00:26:09.448Z,4.10
2019-04-27T00:28:38.016Z,4.40
2019-04-27T00:31:06.570Z,4.10
2019-04-27T00:33:35.218Z,3.67
2019-04-27T00:36:12.715Z,4.10
2019-04-27T00:38:43.575Z,4.43
2019-04-27T00:41:14.274Z,5.27
2019-04-27T00:43:44.518Z,5.00
2019-04-27T00:46:13.886Z,4.93
2019-04-27T00:48:43.293Z,4.53
2019-04-27T00:51:12.921Z,3.87
2019-04-27T00:54:01.625Z,4.17
2019-04-27T00:56:40.791Z,4.77
2019-04-27T00:59:17.131Z,6.47
2019-04-27T01:01:47.370Z,3.87
2019-04-27T01:04:19.993Z,4.37
2019-04-27T01:06:48.566Z,4.83
2019-04-27T01:09:17.571Z,4.77
2019-04-27T01:11:46.213Z,4.27
2019-04-27T01:14:15.127Z,3.97
2019-04-27T01:16:43.793Z,6.23
2019-04-27T01:19:18.962Z,4.30
2019-04-27T01:21:53.529Z,5.13
2019-04-27T01:24:22.414Z,4.00
2019-04-27T01:27:04.727Z,4.57
2019-04-27T01:29:34.953Z,4.10
2019-04-27T01:32:04.655Z,5.70
2019-04-27T01:34:33.312Z,4.57
2019-04-27T01:37:01.966Z,5.60
2019-04-27T01:39:50.392Z,3.83
2019-04-27T01:42:19.413Z,4.30
2019-04-27T01:44:50.831Z,5.13
2019-04-27T01:47:18.754Z,5.60
2019-04-27T01:49:49.413Z,3.90
2019-04-27T01:52:19.429Z,4.33
2019-04-27T01:54:49.532Z,4.63
2019-04-27T01:57:19.391Z,5.37
2019-04-27T01:59:48.943Z,4.10
2019-04-27T02:02:20.455Z,4.50
2019-04-27T02:04:53.802Z,4.40
2019-04-27T02:07:22.941Z,5.20
2019-04-27T02:09:51.658Z,4.00
2019-04-27T02:12:20.374Z,4.40
2019-04-27T02:14:49.209Z,4.17
2019-04-27T02:17:18.706Z,4.07
2019-04-27T02:19:49.281Z,4.57
2019-04-27T02:22:18.684Z,3.97
2019-04-27T02:24:49.274Z,4.60
2019-04-27T02:27:19.772Z,4.53
2019-04-27T02:30:02.001Z,4.80
2019-04-27T02:32:32.219Z,5.03
2019-04-27T02:35:02.829Z,4.77
2019-04-27T02:37:31.436Z,4.73
2019-04-27T02:40:00.417Z,4.50
2019-04-27T02:42:30.968Z,4.10
2019-04-27T02:44:59.900Z,4.57
2019-04-27T02:47:29.518Z,3.93
2019-04-27T02:50:00.654Z,4.23
2019-04-27T02:52:30.468Z,4.10
2019-04-27T02:54:59.461Z,4.03
2019-04-27T02:57:30.149Z,4.43
2019-04-27T03:00:00.010Z,4.37
2019-04-27T03:02:40.358Z,3.70
2019-04-27T03:05:12.793Z,4.10
2019-04-27T03:07:42.672Z,3.70
2019-04-27T03:10:11.059Z,3.60
2019-04-27T03:12:42.321Z,6.07
2019-04-27T03:15:23.534Z,4.23
2019-04-27T03:17:55.662Z,4.60
2019-04-27T03:20:29.999Z,4.80
2019-04-27T03:23:00.279Z,4.87
2019-04-27T03:25:32.581Z,4.23
2019-04-27T03:28:02.832Z,4.13
2019-04-27T03:30:35.357Z,4.00
2019-04-27T03:33:03.312Z,4.30
2019-04-27T03:35:36.443Z,4.27
2019-04-27T03:38:02.980Z,4.23
2019-04-27T03:40:31.647Z,3.93
2019-04-27T03:43:02.057Z,4.33
2019-04-27T03:45:32.264Z,3.80
2019-04-27T03:48:00.940Z,4.87
2019-04-27T03:50:31.277Z,6.43
2019-04-27T03:53:20.532Z,5.03
2019-04-27T03:55:50.236Z,4.57
2019-04-27T03:58:33.926Z,4.70
2019-04-27T04:01:02.792Z,6.13
2019-04-27T04:03:31.399Z,5.53
2019-04-27T04:06:00.434Z,5.30
2019-04-27T04:08:30.746Z,7.33
2019-04-27T04:11:02.841Z,5.30
2019-04-27T04:13:33.252Z,5.33
2019-04-27T04:16:20.326Z,4.80
2019-04-27T04:19:02.749Z,6.73
2019-04-27T04:21:31.793Z,5.87
2019-04-27T04:24:01.326Z,5.60
2019-04-27T04:26:32.712Z,5.80
2019-04-27T04:29:01.170Z,5.10
2019-04-27T04:31:33.226Z,5.37
2019-04-27T04:34:00.185Z,6.37
2019-04-27T04:36:30.168Z,5.27
2019-04-27T04:39:19.826Z,5.07
2019-04-27T04:41:53.467Z,6.03
2019-04-27T04:44:32.754Z,5.10
2019-04-27T04:47:19.498Z,5.40
2019-04-27T04:49:59.690Z,5.80
2019-04-27T04:52:19.748Z,4.77
2019-04-27T04:54:49.557Z,4.17
2019-04-27T04:57:39.857Z,4.37
2019-04-27T05:00:10.066Z,5.00
2019-04-27T05:02:39.705Z,5.30
2019-04-27T05:05:09.512Z,5.23
2019-04-27T05:07:38.844Z,5.53
2019-04-27T05:10:09.018Z,6.03
2019-04-27T05:12:38.729Z,7.37
2019-04-27T05:15:09.260Z,5.00
2019-04-27T05:17:39.748Z,6.00
2019-04-27T05:20:26.599Z,6.23
2019-04-27T05:22:55.245Z,6.60
2019-04-27T05:25:23.835Z,5.60
2019-04-27T05:27:52.453Z,6.67
2019-04-27T05:30:21.230Z,8.27
2019-04-27T05:32:49.888Z,8.93
2019-04-27T05:35:19.433Z,6.43
2019-04-27T05:37:49.196Z,7.43
2019-04-27T05:40:18.922Z,7.33
2019-04-27T05:42:48.807Z,6.73
2019-04-27T05:46:01.158Z,5.87
2019-04-27T05:48:31.649Z,5.80
2019-04-27T05:51:01.917Z,5.20
2019-04-27T05:53:30.675Z,5.70
2019-04-27T05:55:59.565Z,7.03
2019-04-27T05:58:29.001Z,5.00
2019-04-27T06:00:59.481Z,6.53
2019-04-27T06:03:29.647Z,7.17
2019-04-27T06:06:01.545Z,5.53
2019-04-27T06:08:29.575Z,5.60
2019-04-27T06:10:59.337Z,6.43
2019-04-27T06:13:30.751Z,7.63
2019-04-27T06:15:59.373Z,5.17
2019-04-27T06:18:29.471Z,3.90
2019-04-27T06:20:59.855Z,3.87
2019-04-27T06:23:29.052Z,3.80
2019-04-27T06:26:01.604Z,3.97
2019-04-27T06:28:28.998Z,4.30
2019-04-27T06:30:59.458Z,3.73
2019-04-27T06:33:34.165Z,3.43
2019-04-27T06:35:59.433Z,2.87
2019-04-27T06:38:29.283Z,3.73
2019-04-27T06:40:59.046Z,2.80
2019-04-27T06:43:29.406Z,3.80
2019-04-27T06:45:58.778Z,2.63
2019-04-27T06:48:29.496Z,2.87
2019-04-27T06:51:05.026Z,3.27
2019-04-27T06:53:29.124Z,5.63
2019-04-27T06:55:58.678Z,3.07
2019-04-27T06:58:29.116Z,3.50
2019-04-27T07:00:59.377Z,2.03
2019-04-27T07:03:28.898Z,2.20
2019-04-27T07:05:58.854Z,2.73
2019-04-27T07:08:28.647Z,1.80
2019-04-27T07:10:58.887Z,2.93
2019-04-27T07:13:29.174Z,2.00
2019-04-27T07:15:59.679Z,1.67
2019-04-27T07:18:28.681Z,1.53
2019-04-27T07:20:58.702Z,1.73
2019-04-27T07:23:29.236Z,1.73
2019-04-27T07:25:59.407Z,2.23
2019-04-27T07:28:28.666Z,1.40
2019-04-27T07:30:58.638Z,1.33
2019-04-27T07:33:27.353Z,1.10
2019-04-27T07:35:56.035Z,2.50
2019-04-27T07:38:25.207Z,1.07
2019-04-27T07:40:54.127Z,1.73
2019-04-27T07:43:30.288Z,1.20
2019-04-27T07:45:59.159Z,1.37
2019-04-27T07:48:34.577Z,1.50
2019-04-27T07:51:03.843Z,1.67
2019-04-27T07:53:32.446Z,1.33
2019-04-27T07:56:01.097Z,1.40
2019-04-27T07:58:29.750Z,1.30
2019-04-27T08:00:59.430Z,1.37
2019-04-27T08:03:29.104Z,1.17
2019-04-27T08:05:58.867Z,2.93
2019-04-27T08:08:28.589Z,1.10
2019-04-27T08:10:59.416Z,1.43
2019-04-27T08:13:29.354Z,1.20
2019-04-27T08:15:59.003Z,1.30
2019-04-27T08:18:27.784Z,1.50
2019-04-27T08:20:57.014Z,1.30
2019-04-27T08:23:29.361Z,1.37
2019-04-27T08:25:58.886Z,1.30
2019-04-27T08:28:31.947Z,2.60
2019-04-27T08:31:08.938Z,1.50
2019-04-27T08:33:38.926Z,2.13
2019-04-27T08:36:08.981Z,1.77
2019-04-27T08:38:38.968Z,3.50
2019-04-27T08:41:09.007Z,1.10
2019-04-27T08:43:39.057Z,1.70
2019-04-27T08:46:08.794Z,1.33
2019-04-27T08:48:39.269Z,1.20
2019-04-27T08:51:09.593Z,1.00
2019-04-27T08:53:39.802Z,3.00
2019-04-27T08:56:09.332Z,1.10
2019-04-27T08:58:38.670Z,1.30
2019-04-27T09:01:10.028Z,4.10
2019-04-27T09:03:59.223Z,1.70
2019-04-27T09:06:28.903Z,1.00
2019-04-27T09:08:59.938Z,3.63
2019-04-27T09:11:36.166Z,1.80
2019-04-27T09:14:30.005Z,1.70
2019-04-27T09:17:02.990Z,2.63
2019-04-27T09:19:45.620Z,1.77
2019-04-27T09:22:16.522Z,1.60
2019-04-27T09:24:44.623Z,2.67
2019-04-27T09:27:13.389Z,2.27
2019-04-27T09:29:41.967Z,1.33
2019-04-27T09:32:30.244Z,2.93
2019-04-27T09:34:58.960Z,1.10
2019-04-27T09:37:27.828Z,3.23
2019-04-27T09:39:56.418Z,3.67
2019-04-27T09:42:26.800Z,1.67
2019-04-27T09:44:55.864Z,2.97
2019-04-27T09:47:26.621Z,2.13
2019-04-27T09:49:56.524Z,1.90
2019-04-27T09:52:26.957Z,2.00
2019-04-27T09:54:56.033Z,3.13
2019-04-27T09:57:26.456Z,1.57
2019-04-27T09:59:56.469Z,2.23
2019-04-27T10:02:27.326Z,2.67
2019-04-27T10:04:56.582Z,1.20
2019-04-27T10:07:26.814Z,4.33
2019-04-27T10:09:56.042Z,1.17
2019-04-27T10:12:44.183Z,1.30
2019-04-27T10:15:13.130Z,1.30
2019-04-27T10:17:41.860Z,1.80
2019-04-27T10:20:12.046Z,1.93
2019-04-27T10:22:43.481Z,1.33
2019-04-27T10:25:13.444Z,1.07
2019-04-27T10:27:43.760Z,0.87
2019-04-27T10:30:12.748Z,1.40
2019-04-27T10:33:00.726Z,2.17
2019-04-27T10:35:30.516Z,1.07
2019-04-27T10:37:59.413Z,1.10
2019-04-27T10:40:28.198Z,0.87
2019-04-27T10:42:56.850Z,0.97
2019-04-27T10:45:25.614Z,1.10
2019-04-27T10:47:56.158Z,0.83
2019-04-27T10:50:26.369Z,1.00
2019-04-27T10:52:56.767Z,1.30
2019-04-27T10:55:26.166Z,1.00
2019-04-27T10:57:54.908Z,1.23
2019-04-27T11:00:31.511Z,1.10
2019-04-27T11:03:19.417Z,1.50
2019-04-27T11:05:58.966Z,1.70
2019-04-27T11:08:27.755Z,0.90
2019-04-27T11:10:56.580Z,0.90
2019-04-27T11:13:25.824Z,1.03
2019-04-27T11:15:54.958Z,1.00
2019-04-27T11:18:25.671Z,1.00
2019-04-27T11:20:54.033Z,1.00
2019-04-27T11:23:22.848Z,1.03
2019-04-27T11:25:51.481Z,1.23
2019-04-27T11:28:20.187Z,1.00
2019-04-27T11:30:48.803Z,0.80
2019-04-27T11:33:18.847Z,0.87
2019-04-27T11:35:58.336Z,0.80
2019-04-27T11:38:27.125Z,1.47
2019-04-27T11:40:56.650Z,0.80
2019-04-27T11:43:26.127Z,0.80
2019-04-27T11:45:55.893Z,0.80
2019-04-27T11:48:26.244Z,4.90
2019-04-27T11:50:56.060Z,1.03
2019-04-27T11:53:26.228Z,1.03
2019-04-27T11:55:55.273Z,1.03
2019-04-27T11:58:23.943Z,1.20
2019-04-27T12:00:53.065Z,0.70
2019-04-27T12:03:23.427Z,0.67
2019-04-27T12:05:52.243Z,0.77
2019-04-27T12:08:20.904Z,0.80
2019-04-27T12:10:49.598Z,0.83
2019-04-27T12:13:18.653Z,1.90
2019-04-27T12:15:47.344Z,0.80
2019-04-27T12:18:17.023Z,0.90
2019-04-27T12:20:45.909Z,1.47
2019-04-27T12:23:16.503Z,1.87
2019-04-27T12:25:46.179Z,0.80
2019-04-27T12:28:19.331Z,1.03
2019-04-27T12:30:53.805Z,1.00
2019-04-27T12:33:22.569Z,1.00
2019-04-27T12:35:51.324Z,2.97
2019-04-27T12:38:20.217Z,0.90
2019-04-27T12:40:48.925Z,1.90
2019-04-27T12:43:25.271Z,1.10
2019-04-27T12:45:55.803Z,1.40
2019-04-27T12:48:24.639Z,3.63
2019-04-27T12:50:53.451Z,1.93
2019-04-27T12:53:26.527Z,3.27
2019-04-27T12:55:56.917Z,2.07
2019-04-27T12:58:30.636Z,1.43
2019-04-27T13:01:01.203Z,1.93
2019-04-27T13:03:29.819Z,1.17
2019-04-27T13:05:58.607Z,1.10
2019-04-27T13:11:09.855Z,1.10
2019-04-27T13:13:38.570Z,1.40
2019-04-27T13:16:07.379Z,1.20
2019-04-27T13:18:37.020Z,1.37
2019-04-27T13:21:05.891Z,7.57
2019-04-27T13:23:37.134Z,1.23
2019-04-27T13:26:06.348Z,1.17
2019-04-27T13:28:35.843Z,4.23
2019-04-27T13:31:06.745Z,2.87
2019-04-27T13:33:37.336Z,2.50
2019-04-27T13:36:07.532Z,1.23
2019-04-27T13:38:36.574Z,3.87
2019-04-27T13:41:07.229Z,1.37
2019-04-27T13:43:38.601Z,1.00
2019-04-27T13:46:15.809Z,0.90
2019-04-27T13:49:02.626Z,1.10
2019-04-27T13:51:52.200Z,2.00
2019-04-27T13:54:26.068Z,1.93
2019-04-27T13:56:51.238Z,1.80
2019-04-27T13:59:21.763Z,1.60
2019-04-27T14:01:50.383Z,0.80
2019-04-27T14:04:19.083Z,0.90
2019-04-27T14:07:08.949Z,1.17
2019-04-27T14:09:39.155Z,1.83
2019-04-27T14:12:09.409Z,4.57
2019-04-27T14:14:39.043Z,1.47
2019-04-27T14:17:09.643Z,1.10
2019-04-27T14:19:43.255Z,2.10
2019-04-27T14:22:11.932Z,2.60
2019-04-27T14:24:41.003Z,2.17
2019-04-27T14:27:10.715Z,3.47
2019-04-27T14:29:39.768Z,1.20
2019-04-27T14:32:09.025Z,1.30
2019-04-27T14:34:37.653Z,1.30
2019-04-27T14:37:08.537Z,1.43
2019-04-27T14:39:38.863Z,1.40
2019-04-27T14:42:26.708Z,4.13
2019-04-27T14:44:55.395Z,1.87
2019-04-27T14:47:24.343Z,2.43
2019-04-27T14:49:52.955Z,1.43
2019-04-27T14:52:21.617Z,1.03
2019-04-27T14:54:50.846Z,1.23
2019-04-27T14:57:25.773Z,1.03
2019-04-27T14:59:54.358Z,2.93
2019-04-27T15:02:22.928Z,2.20
2019-04-27T15:04:51.524Z,1.37
2019-04-27T15:07:20.182Z,1.73
2019-04-27T15:09:49.526Z,1.67
2019-04-27T15:12:23.632Z,1.30
2019-04-27T15:14:53.184Z,1.83
2019-04-27T15:17:23.190Z,2.20
2019-04-27T15:19:54.989Z,1.87
2019-04-27T15:22:25.227Z,3.23
2019-04-27T15:25:06.369Z,1.70
2019-04-27T15:27:26.054Z,1.73
2019-04-27T15:29:55.843Z,0.90
2019-04-27T15:32:33.584Z,0.83
2019-04-27T15:35:05.198Z,0.70
2019-04-27T15:37:50.882Z,3.30
2019-04-27T15:40:28.945Z,0.80
2019-04-27T15:43:05.484Z,1.60
2019-04-27T15:45:34.203Z,0.70
2019-04-27T15:48:09.693Z,1.17
2019-04-27T15:50:38.771Z,1.43
2019-04-27T15:53:12.299Z,1.77
2019-04-27T15:55:39.618Z,1.87
2019-04-27T15:58:09.818Z,1.30
2019-04-27T16:00:40.189Z,1.63
2019-04-27T16:03:09.797Z,3.90
2019-04-27T16:05:38.791Z,2.07
2019-04-27T16:08:13.031Z,3.40
2019-04-27T16:10:40.294Z,1.77
2019-04-27T16:13:32.969Z,3.07
2019-04-27T16:15:58.470Z,2.83
2019-04-27T16:18:31.002Z,3.13
2019-04-27T16:20:58.602Z,4.20
2019-04-27T16:23:28.256Z,1.40
2019-04-27T16:25:58.216Z,1.50
2019-04-27T16:28:27.477Z,4.13
2019-04-27T16:30:56.160Z,2.40
2019-04-27T16:33:24.836Z,2.40
2019-04-27T16:36:00.282Z,2.57
2019-04-27T16:38:26.646Z,4.27
2019-04-27T16:40:59.766Z,2.10
2019-04-27T16:43:29.845Z,3.47
2019-04-27T16:45:59.695Z,3.63
2019-04-27T16:48:28.039Z,2.83
2019-04-27T16:50:59.216Z,1.97
2019-04-27T16:53:30.073Z,3.57
2019-04-27T16:56:13.129Z,2.73
2019-04-27T16:58:39.509Z,3.63
2019-04-27T17:01:11.612Z,3.77
2019-04-27T17:03:41.434Z,2.43
2019-04-27T17:06:10.354Z,2.57
2019-04-27T17:08:39.544Z,2.00
2019-04-27T17:11:13.110Z,3.10
2019-04-27T17:13:44.160Z,3.43
2019-04-27T17:16:24.674Z,2.50
2019-04-27T17:19:04.909Z,4.33
2019-04-27T17:21:29.131Z,5.33
2019-04-27T17:24:03.002Z,2.80
2019-04-27T17:26:29.226Z,2.63
2019-04-27T17:28:59.410Z,2.10
2019-04-27T17:31:29.730Z,2.63
2019-04-27T17:34:03.818Z,1.90
2019-04-27T17:36:32.588Z,2.17
2019-04-27T17:39:01.294Z,1.93
2019-04-27T17:41:29.987Z,2.00
2019-04-27T17:43:59.100Z,1.70
2019-04-27T17:46:28.266Z,2.50
2019-04-27T17:49:02.456Z,2.30
2019-04-27T17:51:35.262Z,1.50
2019-04-27T17:54:03.016Z,2.50
2019-04-27T17:56:35.977Z,3.20
2019-04-27T17:59:02.067Z,2.33
2019-04-27T18:01:31.923Z,7.33
2019-04-27T18:04:03.098Z,1.57
2019-04-27T18:06:31.447Z,1.93
2019-04-27T18:09:03.277Z,1.60
2019-04-27T18:11:32.901Z,2.07
2019-04-27T18:14:01.663Z,1.70
2019-04-27T18:16:34.266Z,2.00
2019-04-27T18:19:08.035Z,1.80
2019-04-27T18:21:34.930Z,2.60
2019-04-27T18:24:05.600Z,1.50
2019-04-27T18:26:49.330Z,2.53
2019-04-27T18:29:11.883Z,1.53
2019-04-27T18:31:40.536Z,3.67
2019-04-27T18:34:15.027Z,2.50
2019-04-27T18:36:43.945Z,2.43
2019-04-27T18:39:13.475Z,1.93
2019-04-27T18:41:44.493Z,2.60
2019-04-27T18:44:11.187Z,2.40
2019-04-27T18:46:39.997Z,5.50
2019-04-27T18:49:15.900Z,3.70
2019-04-27T18:51:46.215Z,5.67
2019-04-27T18:54:14.839Z,4.87
2019-04-27T18:56:43.549Z,1.93
2019-04-27T18:59:12.290Z,4.57
2019-04-27T19:01:40.950Z,4.37
2019-04-27T19:04:09.532Z,4.13
2019-04-27T19:06:39.118Z,2.20
2019-04-27T19:09:08.417Z,7.60
2019-04-27T19:11:38.303Z,4.23
2019-04-27T19:14:08.346Z,3.67
2019-04-27T19:16:38.385Z,6.57
2019-04-27T19:19:08.739Z,4.03
2019-04-27T19:21:39.264Z,4.33
2019-04-27T19:24:08.905Z,4.00
2019-04-27T19:26:51.601Z,6.67
2019-04-27T19:29:21.965Z,5.17
2019-04-27T19:31:52.443Z,3.50
2019-04-27T19:34:21.002Z,2.50
2019-04-27T19:36:49.691Z,4.70
2019-04-27T19:39:23.557Z,2.90
2019-04-27T19:42:00.409Z,2.90
2019-04-27T19:44:22.435Z,2.87
2019-04-27T19:46:51.023Z,3.47
2019-04-27T19:49:21.211Z,2.67
2019-04-27T19:51:49.919Z,4.60
2019-04-27T19:54:18.601Z,3.50
2019-04-27T19:56:47.200Z,3.00
2019-04-27T19:59:23.519Z,5.73
2019-04-27T20:01:54.627Z,4.50
2019-04-27T20:04:27.853Z,8.43
2019-04-27T20:06:56.384Z,8.47
2019-04-27T20:09:32.716Z,1.80
2019-04-27T20:12:02.902Z,5.07
2019-04-27T20:14:33.366Z,4.00
2019-04-27T20:17:01.917Z,2.00
2019-04-27T20:19:31.513Z,2.77
2019-04-27T20:22:00.823Z,4.23
2019-04-27T20:24:31.088Z,1.50
2019-04-27T20:27:00.611Z,2.73
2019-04-27T20:29:31.684Z,3.50
2019-04-27T20:32:01.184Z,1.57
2019-04-27T20:34:31.088Z,5.00
2019-04-27T20:37:01.582Z,2.47
2019-04-27T20:39:30.091Z,3.13
2019-04-27T20:41:58.686Z,2.13
2019-04-27T20:44:27.297Z,2.70
2019-04-27T20:46:55.957Z,4.23
2019-04-27T20:49:24.611Z,3.30
2019-04-27T20:51:54.868Z,2.47
2019-04-27T20:54:23.755Z,3.73
2019-04-27T20:56:53.571Z,5.43
2019-04-27T20:59:22.875Z,3.27
2019-04-27T21:01:51.728Z,2.37
2019-04-27T21:04:22.117Z,3.53
2019-04-27T21:06:52.409Z,2.47
2019-04-27T21:09:21.375Z,3.13
2019-04-27T21:11:50.081Z,2.67
2019-04-27T21:14:18.736Z,3.80
2019-04-27T21:16:47.873Z,2.03
2019-04-27T21:19:16.443Z,1.30
2019-04-27T21:21:45.029Z,1.50
2019-04-27T21:24:13.682Z,1.57
2019-04-27T21:26:42.274Z,3.53
2019-04-27T21:29:11.660Z,1.83
2019-04-27T21:31:41.783Z,1.90
2019-04-27T21:34:10.757Z,6.10
2019-04-27T21:36:42.271Z,1.63
2019-04-27T21:39:11.477Z,2.57
2019-04-27T21:41:41.335Z,3.43
2019-04-27T21:44:11.593Z,2.20
2019-04-27T21:46:41.691Z,2.03
2019-04-27T21:49:12.455Z,1.50
2019-04-27T21:51:42.570Z,1.83
2019-04-27T21:54:12.802Z,2.57
2019-04-27T21:56:41.698Z,2.00
2019-04-27T21:59:11.116Z,4.23
2019-04-27T22:01:41.543Z,3.17
2019-04-27T22:04:11.444Z,4.77
2019-04-27T22:06:40.970Z,2.73
2019-04-27T22:09:12.871Z,2.10
2019-04-27T22:11:41.718Z,3.33
2019-04-27T22:14:11.721Z,1.77
2019-04-27T22:16:41.648Z,2.90
2019-04-27T22:19:12.053Z,5.83
2019-04-27T22:21:41.956Z,4.23
2019-04-27T22:24:12.499Z,1.80
2019-04-27T22:26:41.510Z,3.00
2019-04-27T22:29:12.060Z,1.60
2019-04-27T22:31:41.593Z,3.03
2019-04-27T22:34:10.907Z,2.37
2019-04-27T22:36:39.582Z,2.70
2019-04-27T22:39:17.441Z,2.10
2019-04-27T22:41:56.448Z,3.03
2019-04-27T22:44:26.756Z,2.43
2019-04-27T22:46:56.055Z,1.93
2019-04-27T22:49:24.652Z,3.67
2019-04-27T22:51:53.568Z,1.70
2019-04-27T22:54:22.191Z,2.37
2019-04-27T22:56:52.451Z,1.80
2019-04-27T22:59:28.860Z,2.13
2019-04-27T23:02:15.040Z,4.57
2019-04-27T23:04:45.533Z,2.20
2019-04-27T23:07:14.104Z,2.90
2019-04-27T23:09:42.900Z,1.37
2019-04-27T23:12:13.105Z,2.17
2019-04-27T23:14:41.722Z,2.33
2019-04-27T23:17:17.648Z,4.77
2019-04-27T23:19:46.642Z,2.83
2019-04-27T23:22:15.396Z,2.50
2019-04-27T23:24:43.983Z,4.87
2019-04-27T23:27:15.127Z,2.27
2019-04-27T23:29:42.821Z,1.50
2019-04-27T23:32:13.013Z,1.70
2019-04-27T23:34:42.734Z,1.77
2019-04-27T23:37:11.265Z,1.73
2019-04-27T23:39:39.851Z,2.10
2019-04-27T23:42:08.528Z,2.20
2019-04-27T23:44:37.125Z,2.10
2019-04-27T23:47:05.843Z,2.63
2019-04-27T23:49:34.615Z,2.00
2019-04-27T23:52:05.302Z,2.97
2019-04-27T23:54:34.160Z,1.57
2019-04-27T23:57:02.812Z,4.57
2019-04-27T23:59:33.216Z,3.63
